Time;durP1;ratioP1;P1;durP2;ratioP2;P2;SDS_P1;SDS_P2;PMS_P1;PMS_P2;Temp;Humidity;BMP_temperature;BMP_pressure;BME280_temperature;BME280_humidity;BME280_pressure;Samples;Min_cycle;Max_cycle;Signal;HPM_P1;HPM_P2
2021/11/11 00:00:51;;;;;;;19.60;10.43;;;11.10;99.90;;;;;;4863953;29;20452;-82
2021/11/11 00:03:18;;;;;;;24.95;9.63;;;11.00;99.90;;;;;;4863889;29;20506;-82
2021/11/11 00:05:44;;;;;;;26.50;10.18;;;11.10;99.90;;;;;;4875805;29;20034;-82
2021/11/11 00:08:11;;;;;;;19.08;8.48;;;11.00;99.90;;;;;;4861536;29;20032;-80
2021/11/11 00:10:37;;;;;;;23.08;8.77;;;11.00;99.90;;;;;;4860759;29;20064;-79
2021/11/11 00:13:03;;;;;;;27.10;10.27;;;11.10;99.90;;;;;;4873182;29;20077;-81
2021/11/11 00:15:31;;;;;;;20.55;10.10;;;11.10;99.90;;;;;;4862413;29;20037;-83
2021/11/11 00:17:57;;;;;;;25.55;10.05;;;11.10;99.90;;;;;;4863949;29;20491;-85
2021/11/11 00:20:26;;;;;;;22.70;10.50;;;11.10;99.90;;;;;;4873023;29;20085;-85
2021/11/11 00:22:53;;;;;;;25.13;9.90;;;11.10;99.90;;;;;;4861534;29;20052;-82
2021/11/11 00:25:21;;;;;;;18.73;9.53;;;11.00;99.90;;;;;;4862759;29;20033;-83
2021/11/11 00:27:47;;;;;;;28.45;9.63;;;11.00;99.90;;;;;;4862476;29;20282;-82
2021/11/11 00:30:15;;;;;;;24.95;9.35;;;11.00;99.90;;;;;;4863456;29;20040;-83
2021/11/11 00:32:44;;;;;;;23.70;8.75;;;11.00;99.90;;;;;;4861978;29;20475;-83
2021/11/11 00:35:14;;;;;;;29.02;8.57;;;11.10;99.90;;;;;;4860838;29;20029;-84
2021/11/11 00:37:40;;;;;;;22.98;8.57;;;11.10;99.90;;;;;;4870508;29;20097;-83
2021/11/11 00:40:07;;;;;;;24.20;9.27;;;11.00;99.90;;;;;;4865682;29;20025;-84
2021/11/11 00:42:33;;;;;;;28.95;10.65;;;11.00;99.90;;;;;;4865736;29;20479;-84
2021/11/11 00:44:59;;;;;;;25.65;9.57;;;11.00;99.90;;;;;;4865686;29;20085;-82
2021/11/11 00:47:25;;;;;;;25.60;9.65;;;11.00;99.90;;;;;;4865391;29;20033;-84
2021/11/11 00:49:51;;;;;;;17.50;8.50;;;11.00;99.90;;;;;;4882163;29;20036;-83
2021/11/11 00:52:17;;;;;;;22.15;8.73;;;11.00;99.90;;;;;;4864619;29;20410;-83
2021/11/11 00:54:44;;;;;;;24.40;9.38;;;11.00;99.90;;;;;;4865405;29;20056;-83
2021/11/11 00:57:10;;;;;;;20.08;7.88;;;11.00;99.90;;;;;;4880042;29;20584;-86
2021/11/11 00:59:36;;;;;;;22.38;9.43;;;11.10;99.90;;;;;;4881574;29;20037;-84
2021/11/11 01:02:06;;;;;;;23.98;10.23;;;11.10;99.90;;;;;;4881945;29;20500;-85
2021/11/11 01:04:32;;;;;;;25.55;9.60;;;11.10;99.90;;;;;;4866012;29;20165;-84
2021/11/11 01:06:58;;;;;;;16.40;7.63;;;11.10;99.90;;;;;;4882117;29;20073;-83
2021/11/11 01:09:24;;;;;;;27.98;9.10;;;11.10;99.90;;;;;;4882353;29;20036;-83
2021/11/11 01:11:50;;;;;;;18.70;8.77;;;11.20;99.90;;;;;;4864777;29;20040;-82
2021/11/11 01:14:16;;;;;;;16.55;7.78;;;11.10;99.90;;;;;;4847822;29;20045;-83
2021/11/11 01:16:43;;;;;;;29.23;9.77;;;11.10;99.90;;;;;;4861372;29;20112;-83
2021/11/11 01:19:09;;;;;;;22.27;8.07;;;11.10;99.90;;;;;;4866585;29;20045;-82
2021/11/11 01:21:35;;;;;;;19.02;8.55;;;11.20;99.90;;;;;;4872532;29;20104;-82
2021/11/11 01:24:01;;;;;;;18.13;8.70;;;11.10;99.90;;;;;;4869993;29;20456;-82
2021/11/11 01:26:27;;;;;;;25.15;9.40;;;11.10;99.90;;;;;;4863794;29;20040;-82
2021/11/11 01:28:53;;;;;;;20.10;9.32;;;11.10;99.90;;;;;;4861589;29;20037;-83
2021/11/11 01:31:18;;;;;;;17.40;9.23;;;11.10;99.90;;;;;;4860361;29;20037;-83
2021/11/11 01:33:45;;;;;;;18.90;9.13;;;11.10;99.90;;;;;;4876246;29;20038;-82
2021/11/11 01:36:11;;;;;;;21.98;9.80;;;11.00;99.90;;;;;;4861443;29;20467;-82
2021/11/11 01:38:36;;;;;;;19.77;8.40;;;11.00;99.90;;;;;;4860325;29;20186;-82
2021/11/11 01:41:03;;;;;;;29.33;9.30;;;10.90;99.90;;;;;;4864505;29;20443;-83
2021/11/11 01:43:29;;;;;;;23.83;9.93;;;10.90;99.90;;;;;;4875324;29;20029;-82
2021/11/11 01:45:55;;;;;;;19.85;8.07;;;10.90;99.90;;;;;;4868910;29;20069;-83
2021/11/11 01:48:20;;;;;;;20.95;8.63;;;10.90;99.90;;;;;;4864489;29;20029;-82
2021/11/11 01:50:48;;;;;;;27.63;9.82;;;10.90;99.90;;;;;;4876906;29;20479;-84
2021/11/11 01:53:14;;;;;;;;;;;10.90;99.90;;;;;;4877381;29;20037;-84
2021/11/11 01:55:42;;;;;;;23.00;8.48;;;10.90;99.90;;;;;;4870711;29;20361;-83
2021/11/11 01:58:08;;;;;;;24.63;9.32;;;10.90;99.90;;;;;;4860395;29;20108;-83
2021/11/11 02:00:42;;;;;;;23.52;9.23;;;10.90;99.90;;;;;;4879308;29;20065;-83
2021/11/11 02:03:09;;;;;;;21.48;9.73;;;10.80;99.90;;;;;;4879759;29;20032;-82
2021/11/11 02:05:35;;;;;;;31.77;10.27;;;10.80;99.90;;;;;;4872183;29;20499;-84
2021/11/11 02:08:01;;;;;;;26.60;9.48;;;10.80;99.90;;;;;;4864158;29;20044;-82
2021/11/11 02:10:28;;;;;;;19.75;9.25;;;10.80;99.90;;;;;;4863026;29;20490;-82
2021/11/11 02:12:54;;;;;;;19.52;9.32;;;10.70;99.90;;;;;;4862286;29;20566;-82
2021/11/11 02:15:21;;;;;;;28.88;9.48;;;10.70;99.90;;;;;;4866830;29;20077;-82
2021/11/11 02:17:48;;;;;;;24.00;10.40;;;10.80;99.90;;;;;;4868685;29;20038;-83
2021/11/11 02:20:34;;;;;;;26.17;10.05;;;10.80;99.90;;;;;;4886906;29;20446;-82
2021/11/11 02:23:01;;;;;;;23.48;9.32;;;10.80;99.90;;;;;;4874525;29;20084;-81
2021/11/11 02:25:28;;;;;;;29.48;9.68;;;10.80;99.90;;;;;;4878849;29;20047;-83
2021/11/11 02:27:59;;;;;;;23.00;9.50;;;10.80;99.90;;;;;;4887143;29;20032;-83
2021/11/11 02:30:27;;;;;;;22.90;9.07;;;10.80;99.90;;;;;;4869096;29;20140;-83
2021/11/11 02:32:53;;;;;;;23.38;9.68;;;10.80;99.90;;;;;;4886276;29;20043;-83
2021/11/11 02:35:20;;;;;;;27.75;9.98;;;10.80;99.90;;;;;;4868683;29;20039;-83
2021/11/11 02:37:46;;;;;;;24.30;9.55;;;10.80;99.90;;;;;;4865652;29;20511;-82
2021/11/11 02:40:20;;;;;;;21.90;10.10;;;10.80;99.90;;;;;;4862877;29;20469;-83
2021/11/11 02:42:47;;;;;;;18.83;9.05;;;10.80;99.90;;;;;;4884315;29;20037;-83
2021/11/11 02:45:33;;;;;;;21.83;9.27;;;10.80;99.90;;;;;;4886891;29;20028;-81
2021/11/11 02:47:59;;;;;;;21.27;9.88;;;10.70;99.90;;;;;;4868186;29;20040;-82
2021/11/11 02:50:25;;;;;;;25.48;9.38;;;10.70;99.90;;;;;;4869027;29;20045;-82
2021/11/11 02:52:52;;;;;;;29.33;9.68;;;10.80;99.90;;;;;;4886606;29;20033;-82
2021/11/11 02:55:18;;;;;;;25.05;9.38;;;10.70;99.90;;;;;;4887206;29;20318;-82
2021/11/11 02:57:46;;;;;;;18.92;9.32;;;10.70;99.90;;;;;;4856090;29;20062;-83
2021/11/11 03:00:19;;;;;;;27.65;10.75;;;10.70;99.90;;;;;;4871929;29;20029;-83
2021/11/11 03:02:47;;;;;;;30.42;10.07;;;10.70;99.90;;;;;;4867882;29;20030;-83
2021/11/11 03:05:15;;;;;;;21.38;8.98;;;10.70;99.90;;;;;;4874918;29;20033;-83
2021/11/11 03:07:42;;;;;;;22.27;9.27;;;10.70;99.90;;;;;;4878094;29;20056;-83
2021/11/11 03:10:10;;;;;;;25.75;9.57;;;10.70;99.90;;;;;;4887295;29;20033;-83
2021/11/11 03:12:36;;;;;;;22.52;9.48;;;10.70;99.90;;;;;;4869802;29;20028;-83
2021/11/11 03:15:03;;;;;;;28.20;9.93;;;10.70;99.90;;;;;;4869137;29;20025;-83
2021/11/11 03:17:28;;;;;;;23.13;9.45;;;10.70;99.90;;;;;;4869316;29;20033;-83
2021/11/11 03:19:54;;;;;;;26.05;9.68;;;10.70;99.90;;;;;;4879463;29;20463;-83
2021/11/11 03:22:20;;;;;;;19.55;9.38;;;10.70;99.90;;;;;;4869570;29;20029;-82
2021/11/11 03:24:48;;;;;;;20.35;8.80;;;10.70;99.90;;;;;;4876106;29;20062;-83
2021/11/11 03:27:15;;;;;;;25.83;10.10;;;10.70;99.90;;;;;;4872011;29;20041;-83
2021/11/11 03:29:41;;;;;;;24.88;9.88;;;10.70;99.90;;;;;;4877663;29;20064;-83
2021/11/11 03:32:07;;;;;;;28.40;10.85;;;10.70;99.90;;;;;;4866604;29;20029;-84
2021/11/11 03:34:34;;;;;;;25.88;10.88;;;10.70;99.90;;;;;;4863731;29;20486;-83
2021/11/11 03:37:00;;;;;;;21.80;9.60;;;10.80;99.90;;;;;;4880909;29;20029;-82
2021/11/11 03:39:27;;;;;;;24.23;10.60;;;10.70;99.90;;;;;;4877902;29;20112;-81
2021/11/11 03:41:54;;;;;;;25.92;10.05;;;10.70;99.90;;;;;;4864176;29;20026;-82
2021/11/11 03:44:22;;;;;;;25.10;10.70;;;10.70;99.90;;;;;;4865197;29;20723;-82
2021/11/11 03:46:52;;;;;;;25.83;9.60;;;10.70;99.90;;;;;;4865869;29;20077;-83
2021/11/11 03:49:18;;;;;;;21.92;10.85;;;10.60;99.90;;;;;;4873793;29;20034;-82
2021/11/11 03:51:44;;;;;;;30.30;12.35;;;10.60;99.90;;;;;;4866323;29;20033;-82
2021/11/11 03:54:13;;;;;;;24.65;11.82;;;10.60;99.90;;;;;;4865766;29;20017;-82
2021/11/11 03:56:42;;;;;;;31.63;12.20;;;10.50;99.90;;;;;;4865974;29;20124;-82
2021/11/11 03:59:09;;;;;;;30.83;12.13;;;10.50;99.90;;;;;;4865255;29;20165;-81
2021/11/11 04:01:35;;;;;;;28.30;12.05;;;10.50;99.90;;;;;;4882433;29;20033;-81
2021/11/11 04:04:03;;;;;;;27.88;12.38;;;10.50;99.90;;;;;;4882621;29;20378;-82
2021/11/11 04:06:47;;;;;;;25.58;12.75;;;10.50;99.90;;;;;;4864550;29;20074;-82
2021/11/11 04:09:13;;;;;;;34.50;11.48;;;10.50;99.90;;;;;;4862090;29;20193;-82
2021/11/11 04:11:39;;;;;;;26.90;11.48;;;10.60;99.90;;;;;;4866664;29;20061;-82
2021/11/11 04:14:05;;;;;;;27.05;12.15;;;10.60;99.90;;;;;;4864530;29;20116;-82
2021/11/11 04:16:31;;;;;;;26.92;11.20;;;10.50;99.90;;;;;;4881699;29;20036;-82
2021/11/11 04:18:57;;;;;;;29.95;11.95;;;10.50;99.90;;;;;;4876415;29;20030;-82
2021/11/11 04:21:23;;;;;;;24.42;11.20;;;10.50;99.90;;;;;;4865145;29;20032;-82
2021/11/11 04:23:51;;;;;;;24.30;12.38;;;10.50;99.90;;;;;;4864168;29;20063;-81
2021/11/11 04:26:34;;;;;;;;;;;10.60;99.90;;;;;;4862620;29;20037;-82
2021/11/11 04:29:06;;;;;;;20.80;10.93;;;10.50;99.90;;;;;;4865444;29;19918;-82
2021/11/11 04:31:35;;;;;;;32.42;13.52;;;10.60;99.90;;;;;;4848487;29;20032;-82
2021/11/11 04:34:05;;;;;;;25.67;12.13;;;10.60;99.90;;;;;;4862400;29;20073;-81
2021/11/11 04:44:32;;;;;;;33.90;13.38;;;10.50;99.90;;;;;;4875997;29;20032;-82
2021/11/11 05:05:21;;;;;;;34.88;14.48;;;10.50;99.90;;;;;;4871486;29;20033;-83
2021/11/11 05:07:48;;;;;;;32.78;12.80;;;10.40;99.90;;;;;;4861748;29;20037;-81
2021/11/11 05:10:14;;;;;;;39.65;14.32;;;10.40;99.90;;;;;;4881296;29;20029;-83
2021/11/11 05:12:40;;;;;;;30.35;12.35;;;10.30;99.90;;;;;;4867581;29;20111;-82
2021/11/11 05:15:07;;;;;;;31.92;12.43;;;10.30;99.90;;;;;;4872865;29;20107;-83
2021/11/11 05:17:33;;;;;;;28.17;12.88;;;10.30;99.90;;;;;;4860505;29;20038;-82
2021/11/11 05:19:59;;;;;;;36.22;13.77;;;10.30;99.90;;;;;;4859722;29;20045;-82
2021/11/11 05:22:24;;;;;;;24.17;11.82;;;10.30;99.90;;;;;;4845330;29;20073;-82
2021/11/11 05:24:50;;;;;;;33.47;13.80;;;10.30;99.90;;;;;;4860499;29;20036;-83
2021/11/11 05:27:16;;;;;;;39.10;14.43;;;10.30;99.90;;;;;;4845015;29;20487;-83
2021/11/11 05:29:42;;;;;;;39.28;14.43;;;10.40;99.90;;;;;;4843740;29;20033;-83
2021/11/11 05:32:09;;;;;;;33.03;14.63;;;10.40;99.90;;;;;;4844683;29;20049;-82
2021/11/11 05:34:35;;;;;;;34.67;13.95;;;10.40;99.90;;;;;;4860388;29;20089;-82
2021/11/11 05:37:01;;;;;;;32.17;12.57;;;10.40;99.90;;;;;;4844111;29;20046;-82
2021/11/11 05:39:26;;;;;;;25.33;13.48;;;10.50;99.90;;;;;;4844565;29;20128;-83
2021/11/11 05:41:52;;;;;;;27.77;12.65;;;10.50;99.90;;;;;;4844309;29;20025;-83
2021/11/11 05:44:17;;;;;;;29.85;13.40;;;10.50;99.90;;;;;;4859537;29;20049;-83
2021/11/11 05:46:43;;;;;;;26.33;13.15;;;10.60;99.90;;;;;;4860773;29;20045;-83
2021/11/11 05:49:09;;;;;;;34.70;14.05;;;10.60;99.90;;;;;;4858072;29;20048;-83
2021/11/11 05:51:34;;;;;;;32.30;14.15;;;10.60;99.90;;;;;;4878899;29;20029;-83
2021/11/11 05:54:00;;;;;;;32.13;13.93;;;10.60;99.90;;;;;;4862490;29;20101;-84
2021/11/11 05:56:25;;;;;;;35.55;12.55;;;10.60;99.90;;;;;;4862329;29;20026;-82
2021/11/11 05:58:51;;;;;;;36.92;14.50;;;10.60;99.90;;;;;;4851920;29;20029;-82
2021/11/11 06:01:19;;;;;;;30.27;12.55;;;10.60;99.90;;;;;;4874314;29;20021;-83
2021/11/11 06:03:45;;;;;;;25.60;12.63;;;10.60;99.90;;;;;;4858973;29;20510;-83
2021/11/11 06:06:10;;;;;;;35.50;14.35;;;10.60;99.90;;;;;;4860494;29;20444;-83
2021/11/11 06:08:36;;;;;;;30.58;13.00;;;10.60;99.90;;;;;;4861829;29;20052;-82
2021/11/11 06:11:02;;;;;;;35.03;13.52;;;10.60;99.90;;;;;;4861537;29;20033;-83
2021/11/11 06:13:27;;;;;;;28.33;12.07;;;10.60;99.90;;;;;;4865306;29;20026;-83
2021/11/11 06:15:53;;;;;;;35.67;13.63;;;10.60;99.90;;;;;;4863379;29;20041;-84
2021/11/11 06:18:21;;;;;;;40.85;14.35;;;10.60;99.90;;;;;;4867312;29;20026;-83
2021/11/11 06:20:53;;;;;;;47.13;14.75;;;10.50;99.90;;;;;;4872914;29;20033;-83
2021/11/11 06:23:18;;;;;;;38.63;13.65;;;10.50;99.90;;;;;;4861864;29;20120;-83
2021/11/11 06:25:44;;;;;;;31.60;11.93;;;10.50;99.90;;;;;;4860001;29;20142;-83
2021/11/11 06:28:10;;;;;;;30.67;13.80;;;10.50;99.90;;;;;;4868374;29;20073;-83
2021/11/11 06:30:36;;;;;;;32.95;12.40;;;10.50;99.90;;;;;;4879708;29;20040;-83
2021/11/11 06:33:02;;;;;;;28.67;13.02;;;10.50;99.90;;;;;;4880318;29;20032;-83
2021/11/11 06:35:32;;;;;;;41.63;13.65;;;10.50;99.90;;;;;;4863364;29;20085;-82
2021/11/11 06:37:59;;;;;;;32.50;12.68;;;10.50;99.90;;;;;;4862948;29;20041;-82
2021/11/11 06:40:27;;;;;;;33.88;13.02;;;10.50;99.90;;;;;;4873154;29;20030;-83
2021/11/11 06:42:52;;;;;;;23.60;8.82;;;10.40;99.90;;;;;;4862744;29;20033;-82
2021/11/11 06:45:19;;;;;;;36.45;13.10;;;10.40;99.90;;;;;;4873537;29;20093;-81
2021/11/11 06:47:45;;;;;;;37.23;12.57;;;10.40;99.90;;;;;;4862977;29;20116;-82
2021/11/11 06:50:11;;;;;;;31.80;11.88;;;10.40;99.90;;;;;;4879753;29;20124;-82
2021/11/11 06:52:37;;;;;;;36.60;13.10;;;10.40;99.90;;;;;;4871498;29;20569;-83
2021/11/11 06:55:06;;;;;;;34.08;11.73;;;10.50;99.90;;;;;;4851589;29;20534;-83
2021/11/11 06:57:32;;;;;;;28.67;12.82;;;10.50;99.90;;;;;;4827807;29;20140;-82
2021/11/11 06:59:57;;;;;;;29.38;12.43;;;10.50;99.90;;;;;;4833817;29;20129;-82
2021/11/11 07:02:26;;;;;;;32.53;13.95;;;10.50;99.90;;;;;;4852192;29;20050;-82
2021/11/11 07:04:52;;;;;;;29.20;12.50;;;10.50;99.90;;;;;;4862484;29;20033;-83
2021/11/11 07:07:18;;;;;;;32.65;12.18;;;10.60;99.90;;;;;;4848068;29;20046;-81
2021/11/11 07:09:44;;;;;;;26.10;11.45;;;10.60;99.90;;;;;;4844023;29;20045;-82
2021/11/11 07:12:10;;;;;;;36.22;13.95;;;10.60;99.90;;;;;;4844719;29;20484;-82
2021/11/11 07:14:36;;;;;;;35.55;13.82;;;10.60;99.90;;;;;;4839559;29;20034;-82
2021/11/11 07:17:03;;;;;;;30.33;11.90;;;10.60;99.90;;;;;;4825991;29;20038;-82
2021/11/11 07:19:29;;;;;;;32.47;13.30;;;10.60;99.90;;;;;;4843548;29;20100;-82
2021/11/11 07:21:55;;;;;;;33.78;11.82;;;10.60;99.90;;;;;;4850598;29;20105;-81
2021/11/11 07:24:20;;;;;;;34.83;12.73;;;10.60;99.90;;;;;;4861169;29;20041;-83
2021/11/11 07:26:46;;;;;;;35.38;12.68;;;10.70;99.90;;;;;;4852236;29;20042;-82
2021/11/11 07:29:12;;;;;;;26.38;12.07;;;10.70;99.90;;;;;;4857726;29;20037;-82
2021/11/11 07:31:37;;;;;;;35.78;12.98;;;10.70;99.90;;;;;;4865362;29;20076;-83
2021/11/11 07:34:03;;;;;;;38.15;13.73;;;10.70;99.90;;;;;;4876151;29;20503;-83
2021/11/11 07:36:30;;;;;;;27.33;13.05;;;10.70;99.90;;;;;;4872783;29;20037;-83
2021/11/11 07:38:58;;;;;;;42.13;12.63;;;10.80;99.90;;;;;;4864098;29;20459;-82
2021/11/11 07:41:24;;;;;;;29.90;12.85;;;10.80;99.90;;;;;;4865124;29;20040;-83
2021/11/11 07:43:49;;;;;;;35.35;13.52;;;10.80;99.90;;;;;;4883166;29;20037;-83
2021/11/11 07:46:16;;;;;;;29.08;11.70;;;10.90;99.90;;;;;;4864046;29;20392;-83
2021/11/11 07:48:41;;;;;;;32.28;13.73;;;10.90;99.90;;;;;;4866903;29;20029;-82
2021/11/11 07:51:07;;;;;;;33.17;13.43;;;10.90;99.90;;;;;;4881274;29;20025;-83
2021/11/11 07:53:33;;;;;;;31.52;11.80;;;10.90;99.90;;;;;;4874755;29;20057;-83
2021/11/11 07:55:59;;;;;;;34.28;12.75;;;10.90;99.90;;;;;;4865859;29;20041;-82
2021/11/11 07:58:24;;;;;;;36.90;13.55;;;10.90;99.90;;;;;;4882671;29;20031;-83
2021/11/11 08:00:51;;;;;;;35.03;11.82;;;11.00;99.90;;;;;;4880757;29;20039;-83
2021/11/11 08:03:17;;;;;;;33.90;11.85;;;11.00;99.90;;;;;;4866267;29;20474;-83
2021/11/11 08:05:43;;;;;;;32.83;12.50;;;11.10;99.90;;;;;;4882634;29;20029;-83
2021/11/11 08:08:10;;;;;;;41.47;12.68;;;11.10;99.90;;;;;;4866262;29;20037;-82
2021/11/11 08:10:36;;;;;;;33.20;13.02;;;11.00;99.90;;;;;;4881004;29;20506;-83
2021/11/11 08:13:02;;;;;;;30.67;13.43;;;11.00;99.90;;;;;;4865943;29;20051;-82
2021/11/11 08:15:28;;;;;;;45.80;14.40;;;11.00;99.90;;;;;;4864743;29;20021;-86
2021/11/11 08:17:54;;;;;;;31.08;12.23;;;11.00;99.90;;;;;;4879238;29;20552;-83
2021/11/11 08:20:20;;;;;;;34.45;11.80;;;11.00;99.90;;;;;;4865601;29;20080;-83
2021/11/11 08:22:48;;;;;;;35.55;12.38;;;10.90;99.90;;;;;;4887727;29;20135;-83
2021/11/11 08:25:16;;;;;;;28.77;11.93;;;11.00;99.90;;;;;;4883036;29;20033;-82
2021/11/11 08:27:43;;;;;;;30.15;12.65;;;11.00;99.90;;;;;;4874825;29;20394;-82
2021/11/11 08:30:12;;;;;;;28.30;12.13;;;11.00;99.90;;;;;;4856193;29;20097;-84
2021/11/11 08:32:40;;;;;;;22.95;11.55;;;11.00;99.90;;;;;;4865838;29;20045;-85
2021/11/11 08:35:06;;;;;;;30.73;13.27;;;11.10;99.90;;;;;;4867012;29;20092;-85
2021/11/11 08:37:32;;;;;;;27.88;12.45;;;11.10;99.90;;;;;;4864828;29;20089;-83
2021/11/11 08:39:57;;;;;;;32.97;13.77;;;11.10;99.90;;;;;;4865169;29;20486;-83
2021/11/11 08:42:24;;;;;;;33.63;13.50;;;11.10;99.90;;;;;;4876412;29;20513;-88
2021/11/11 08:44:50;;;;;;;32.25;13.38;;;11.20;99.90;;;;;;4865562;29;20100;-80
2021/11/11 08:47:18;;;;;;;30.75;12.63;;;11.10;99.90;;;;;;4873580;29;20030;-81
2021/11/11 08:49:46;;;;;;;34.15;13.05;;;11.20;99.90;;;;;;4862346;29;20033;-80
2021/11/11 08:52:13;;;;;;;30.23;12.77;;;11.20;99.90;;;;;;4869669;29;20018;-87
2021/11/11 08:54:39;;;;;;;30.00;12.73;;;11.30;99.90;;;;;;4862967;29;20041;-77
2021/11/11 08:57:05;;;;;;;40.53;15.00;;;11.30;99.90;;;;;;4862902;29;20101;-83
2021/11/11 08:59:32;;;;;;;32.17;12.63;;;11.30;99.90;;;;;;4873236;29;20029;-78
2021/11/11 09:01:59;;;;;;;31.65;12.30;;;11.40;99.90;;;;;;4865405;29;20045;-83
2021/11/11 09:04:24;;;;;;;34.40;13.20;;;11.40;99.90;;;;;;4870995;29;20041;-84
2021/11/11 09:06:51;;;;;;;33.35;13.55;;;11.40;99.90;;;;;;4859067;29;20036;-83
2021/11/11 09:09:18;;;;;;;29.55;12.88;;;11.40;99.90;;;;;;4862440;29;20040;-84
2021/11/11 09:11:45;;;;;;;30.52;12.75;;;11.50;99.90;;;;;;4866509;29;20055;-83
2021/11/11 09:14:12;;;;;;;29.73;13.00;;;11.50;99.90;;;;;;4861897;29;20034;-84
2021/11/11 09:16:38;;;;;;;34.08;13.15;;;11.50;99.90;;;;;;4866005;29;20462;-84
2021/11/11 09:19:05;;;;;;;37.70;14.65;;;11.50;99.90;;;;;;4864635;29;20029;-84
2021/11/11 09:21:32;;;;;;;37.42;12.60;;;11.40;99.90;;;;;;4865637;29;20080;-84
2021/11/11 09:23:58;;;;;;;39.55;14.02;;;11.50;99.90;;;;;;4880043;29;20115;-84
2021/11/11 09:26:24;;;;;;;27.95;13.63;;;11.40;99.90;;;;;;4863099;29;20414;-84
2021/11/11 09:28:51;;;;;;;34.80;13.57;;;11.50;99.90;;;;;;4860124;29;20041;-84
2021/11/11 09:31:17;;;;;;;39.45;14.80;;;11.50;99.90;;;;;;4870302;29;20048;-84
2021/11/11 09:33:44;;;;;;;37.78;14.98;;;11.50;99.90;;;;;;4867320;29;20037;-84
2021/11/11 09:36:15;;;;;;;37.70;14.77;;;11.60;99.90;;;;;;4894231;29;20104;-84
2021/11/11 09:38:43;;;;;;;36.15;14.55;;;11.60;99.90;;;;;;4885244;29;20109;-84
2021/11/11 09:41:12;;;;;;;30.15;12.95;;;11.60;99.90;;;;;;4886641;29;20033;-84
2021/11/11 09:43:39;;;;;;;31.58;13.50;;;11.60;99.90;;;;;;4901490;29;20013;-84
2021/11/11 09:46:08;;;;;;;35.63;14.35;;;11.60;99.90;;;;;;4890458;29;20021;-84
2021/11/11 09:48:35;;;;;;;29.25;12.40;;;11.80;99.90;;;;;;4879954;29;20092;-82
2021/11/11 09:51:03;;;;;;;35.28;12.73;;;11.80;99.90;;;;;;4887246;29;20039;-81
2021/11/11 09:53:30;;;;;;;32.92;14.40;;;11.80;99.90;;;;;;4887429;29;20025;-83
2021/11/11 09:58:42;;;;;;;35.75;13.35;;;11.80;99.90;;;;;;4905122;29;20036;-80
2021/11/11 10:01:13;;;;;;;29.52;13.82;;;11.80;99.90;;;;;;4899003;29;20076;-82
2021/11/11 10:03:44;;;;;;;33.63;14.75;;;11.80;99.90;;;;;;4883558;29;20020;-82
2021/11/11 10:06:13;;;;;;;32.53;13.23;;;11.80;99.90;;;;;;4885185;29;20017;-80
2021/11/11 10:08:40;;;;;;;34.53;14.88;;;11.80;99.90;;;;;;4884319;29;20106;-80
2021/11/11 10:11:34;;;;;;;31.48;14.18;;;11.90;99.90;;;;;;4882193;29;20056;-81
2021/11/11 10:14:10;;;;;;;34.47;15.27;;;11.90;99.90;;;;;;4882288;29;20066;-79
2021/11/11 10:16:41;;;;;;;32.97;15.43;;;12.00;99.90;;;;;;4903160;29;20196;-80
2021/11/11 10:19:07;;;;;;;38.47;15.05;;;12.00;99.90;;;;;;4900472;29;20013;-83
2021/11/11 10:21:41;;;;;;;36.80;15.63;;;12.00;99.90;;;;;;4887010;29;20033;-82
2021/11/11 10:24:28;;;;;;;39.08;15.27;;;12.10;99.90;;;;;;4886622;29;20040;-81
2021/11/11 10:27:13;;;;;;;39.10;15.43;;;12.10;99.90;;;;;;4903796;29;20021;-81
2021/11/11 10:30:05;;;;;;;40.15;15.48;;;12.20;99.90;;;;;;4885961;29;20025;-80
2021/11/11 10:32:48;;;;;;;35.60;14.68;;;12.20;99.90;;;;;;4902733;29;20025;-81
2021/11/11 10:35:25;;;;;;;35.03;15.35;;;12.30;99.90;;;;;;4904445;29;20042;-81
2021/11/11 10:38:03;;;;;;;41.25;16.17;;;12.30;99.90;;;;;;4884626;29;20036;-81
2021/11/11 10:40:32;;;;;;;40.85;15.30;;;12.40;99.90;;;;;;4905019;29;20017;-81
2021/11/11 10:43:00;;;;;;;37.30;17.10;;;12.40;99.90;;;;;;4904533;29;20088;-80
2021/11/11 10:45:33;;;;;;;42.75;16.05;;;12.50;99.90;;;;;;4916471;29;20040;-82
2021/11/11 10:48:02;;;;;;;51.88;16.90;;;12.50;99.90;;;;;;4867505;29;20033;-83
2021/11/11 10:50:31;;;;;;;41.97;17.20;;;12.50;99.90;;;;;;4881289;29;20566;-80
2021/11/11 10:53:02;;;;;;;37.40;15.60;;;12.60;99.90;;;;;;4885958;29;20569;-81
2021/11/11 10:55:33;;;;;;;37.50;16.70;;;12.60;99.90;;;;;;4885863;29;20064;-80
2021/11/11 10:58:10;;;;;;;34.20;16.17;;;12.60;99.90;;;;;;4884259;29;20491;-80
2021/11/11 11:00:44;;;;;;;39.00;15.80;;;12.50;99.90;;;;;;4882422;29;20104;-81
2021/11/11 11:03:17;;;;;;;38.17;16.48;;;12.50;99.90;;;;;;4867648;29;20108;-81
2021/11/11 11:06:11;;;;;;;38.40;17.08;;;12.60;99.90;;;;;;4866697;29;20483;-82
2021/11/11 11:08:43;;;;;;;41.17;16.17;;;12.60;99.90;;;;;;4869939;29;20073;-81
2021/11/11 11:11:15;;;;;;;35.38;14.90;;;12.60;99.90;;;;;;4879024;29;20044;-83
2021/11/11 11:13:46;;;;;;;43.10;16.90;;;12.70;99.90;;;;;;4884607;29;20029;-82
2021/11/11 11:16:14;;;;;;;33.78;15.93;;;12.70;99.90;;;;;;4881907;29;20045;-82
2021/11/11 11:18:46;;;;;;;36.75;16.67;;;12.70;99.90;;;;;;4866033;29;20233;-82
2021/11/11 11:21:18;;;;;;;32.17;15.88;;;12.70;99.90;;;;;;4879977;29;20085;-82
2021/11/11 11:23:49;;;;;;;34.05;16.95;;;12.70;99.90;;;;;;4865566;29;20033;-82
2021/11/11 11:26:20;;;;;;;36.78;15.52;;;12.70;99.90;;;;;;4865127;29;20093;-82
2021/11/11 11:31:50;;;;;;;38.58;16.20;;;12.70;99.90;;;;;;4880122;29;20069;-81
2021/11/11 11:34:18;;;;;;;;;;;12.70;99.90;;;;;;4873774;29;20049;-82
2021/11/11 11:36:46;;;;;;;41.13;17.77;;;12.70;99.90;;;;;;4864280;29;19912;-83
2021/11/11 11:39:18;;;;;;;;;;;12.70;99.90;;;;;;4865862;29;20492;-82
2021/11/11 11:41:44;;;;;;;42.35;15.80;;;12.70;99.90;;;;;;4866939;29;20274;-83
2021/11/11 11:44:22;;;;;;;39.40;17.02;;;12.70;99.90;;;;;;4865558;29;20060;-83
2021/11/11 11:47:28;;;;;;;40.60;16.88;;;12.70;99.90;;;;;;4867024;29;20037;-83
2021/11/11 11:49:59;;;;;;;41.80;16.58;;;12.70;99.90;;;;;;4867318;29;20128;-82
2021/11/11 11:52:29;;;;;;;44.35;18.38;;;12.70;99.90;;;;;;4867053;29;20048;-82
2021/11/11 11:55:03;;;;;;;38.50;16.63;;;12.70;99.90;;;;;;4883541;29;20033;-83
2021/11/11 11:57:53;;;;;;;41.20;16.45;;;12.70;99.90;;;;;;4865495;29;20033;-83
2021/11/11 12:01:07;;;;;;;41.95;16.98;;;12.80;99.90;;;;;;4884034;29;20036;-83
2021/11/11 12:03:32;;;;;;;44.72;17.48;;;12.90;99.90;;;;;;4892412;29;20081;-83
2021/11/11 12:14:36;;;;;;;32.25;16.98;;;12.90;99.90;;;;;;4883157;29;20036;-83
2021/11/11 12:39:50;;;;;;;33.47;15.52;;;12.50;99.90;;;;;;4865148;29;20081;-83
2021/11/11 12:42:35;;;;;;;36.95;17.33;;;12.50;99.90;;;;;;4859251;29;20413;-83
2021/11/11 12:45:06;;;;;;;42.42;16.52;;;12.40;99.90;;;;;;4865532;29;20033;-85
2021/11/11 12:47:47;;;;;;;42.75;17.20;;;12.40;99.90;;;;;;4857039;29;20026;-86
2021/11/11 12:50:41;;;;;;;43.08;18.77;;;12.30;99.90;;;;;;4887536;29;20049;-84
2021/11/11 12:53:13;;;;;;;36.92;17.90;;;12.20;99.90;;;;;;4865712;29;20028;-85
2021/11/11 12:56:07;;;;;;;41.60;18.80;;;12.20;99.90;;;;;;4865129;29;20037;-84
2021/11/11 12:58:39;;;;;;;45.45;17.50;;;12.10;99.90;;;;;;4861155;29;20035;-86
2021/11/11 13:01:21;;;;;;;36.00;17.17;;;12.10;99.90;;;;;;4873949;29;20045;-83
2021/11/11 13:03:52;;;;;;;36.47;15.90;;;12.10;99.90;;;;;;4864295;29;20052;-85
2021/11/11 13:07:00;;;;;;;36.25;17.83;;;12.10;99.90;;;;;;4864732;29;20056;-85
2021/11/11 13:09:31;;;;;;;37.72;16.15;;;12.10;99.90;;;;;;4865655;29;20033;-84
2021/11/11 13:12:12;;;;;;;32.53;16.42;;;12.20;99.90;;;;;;4864914;29;20031;-84
2021/11/11 13:15:04;;;;;;;34.35;15.75;;;12.20;99.90;;;;;;4864521;29;20057;-84
2021/11/11 13:17:40;;;;;;;33.45;15.88;;;12.20;99.90;;;;;;4861510;29;20044;-82
2021/11/11 13:20:47;;;;;;;35.03;15.52;;;12.20;99.90;;;;;;4866392;29;20116;-83
2021/11/11 13:23:32;;;;;;;35.92;16.23;;;12.20;99.90;;;;;;4862444;29;20116;-84
2021/11/11 16:26:17;;;;;;;40.78;14.52;;;12.20;99.90;;;;;;4881318;29;21365;-82
2021/11/11 16:28:50;;;;;;;39.58;14.98;;;12.20;99.90;;;;;;4865265;29;20033;-82
2021/11/11 16:31:18;;;;;;;39.67;16.05;;;12.20;99.90;;;;;;4866218;29;20072;-82
2021/11/11 16:33:44;;;;;;;37.13;16.27;;;12.20;99.90;;;;;;4882310;29;20025;-82
2021/11/11 16:36:10;;;;;;;38.75;16.35;;;12.20;99.90;;;;;;4866029;29;20073;-83
2021/11/11 16:38:37;;;;;;;40.88;15.93;;;12.20;99.90;;;;;;4862085;29;20043;-82
2021/11/11 16:41:04;;;;;;;42.15;15.90;;;12.20;99.90;;;;;;4862757;29;20045;-82
2021/11/11 16:43:31;;;;;;;28.40;13.65;;;12.20;99.90;;;;;;4864787;29;20033;-82